Terminal Aerodrome Forecast
Issued by NWS

Home | Current Version | Previous Version | Text Only | Print | Product List | Glossary On
Versions: 1 2 3 4 5 6 7 8 9 10 11 12 13 14 15 16 17 18 19 20 21 22 23 24 25
000
FTUS43 KLOT 210300 AAA
TAFGYY
TAF AMD
KGYY 210300Z 2103/2124 14005KT P6SM SCT050 BKN100
      TEMPO 2105/2107 3SM -TSRA BKN050CB
     FM210700 18005KT P6SM SCT120 BKN250
     FM211500 20007KT P6SM VCSH SCT060 OVC100
     FM211800 20010KT P6SM SCT050 BKN150=

USA.gov is the U.S. government's official web portal to all federal, state and local government web resources and services.